createdAt,value
2022-07-27T00:01:59.744Z,1.63
2022-07-27T00:04:26.508Z,1.92
2022-07-27T00:06:53.737Z,1.65
2022-07-27T00:09:20.556Z,1.60
2022-07-27T00:11:49.890Z,1.85
2022-07-27T00:14:16.771Z,1.75
2022-07-27T00:16:45.765Z,1.80
2022-07-27T00:19:12.824Z,1.95
2022-07-27T00:21:44.639Z,1.70
2022-07-27T00:24:12.999Z,1.92
2022-07-27T00:26:41.859Z,1.95
2022-07-27T00:29:09.270Z,1.55
2022-07-27T00:31:38.441Z,1.67
2022-07-27T00:34:08.074Z,1.63
2022-07-27T00:36:37.329Z,1.70
2022-07-27T00:39:04.244Z,1.77
2022-07-27T00:41:30.902Z,1.70
2022-07-27T00:43:59.961Z,1.50
2022-07-27T00:46:30.219Z,1.73
2022-07-27T00:48:59.653Z,1.60
2022-07-27T00:51:26.396Z,1.70
2022-07-27T00:53:54.187Z,1.67
2022-07-27T00:56:22.003Z,2.00
2022-07-27T00:58:51.426Z,1.77
2022-07-27T01:01:21.411Z,1.50
2022-07-27T01:03:48.492Z,1.70
2022-07-27T01:06:16.342Z,1.58
2022-07-27T01:08:52.564Z,1.77
2022-07-27T01:11:22.002Z,1.42
2022-07-27T01:13:48.798Z,1.50
2022-07-27T01:16:15.653Z,1.48
2022-07-27T01:18:43.287Z,1.55
2022-07-27T01:21:12.444Z,1.70
2022-07-27T01:23:39.199Z,1.52
2022-07-27T01:26:08.137Z,1.20
2022-07-27T01:28:34.913Z,1.60
2022-07-27T01:31:01.858Z,1.50
2022-07-27T01:33:28.697Z,1.55
2022-07-27T01:35:57.273Z,1.42
2022-07-27T01:38:24.105Z,1.40
2022-07-27T01:40:51.698Z,1.20
2022-07-27T01:43:18.946Z,1.40
2022-07-27T01:45:45.896Z,1.30
2022-07-27T01:48:12.667Z,1.38
2022-07-27T01:50:47.566Z,1.40
2022-07-27T01:53:14.743Z,1.30
2022-07-27T01:55:41.536Z,1.30
2022-07-27T01:58:09.129Z,1.50
2022-07-27T02:00:38.269Z,1.40
2022-07-27T02:03:06.737Z,1.20
2022-07-27T02:05:33.716Z,1.38
2022-07-27T02:08:00.523Z,1.40
2022-07-27T02:10:27.930Z,1.60
2022-07-27T02:12:57.212Z,1.38
2022-07-27T02:15:28.089Z,1.23
2022-07-27T02:18:28.923Z,1.50
2022-07-27T02:20:56.584Z,1.65
2022-07-27T02:23:23.259Z,1.40
2022-07-27T02:25:49.994Z,1.50
2022-07-27T02:28:16.716Z,1.40
2022-07-27T02:30:48.189Z,1.65
2022-07-27T02:33:15.082Z,1.30
2022-07-27T02:35:43.206Z,1.63
2022-07-27T02:38:10.080Z,1.38
2022-07-27T02:40:36.872Z,1.90
2022-07-27T02:43:03.610Z,1.52
2022-07-27T02:45:30.352Z,1.45
2022-07-27T02:47:57.095Z,1.48
2022-07-27T02:50:26.162Z,1.60
2022-07-27T02:52:55.592Z,1.40
2022-07-27T02:55:22.296Z,1.50
2022-07-27T02:57:48.975Z,1.48
2022-07-27T03:00:16.523Z,1.77
2022-07-27T03:02:49.130Z,1.60
2022-07-27T03:05:16.087Z,1.27
2022-07-27T03:07:42.756Z,1.40
2022-07-27T03:10:09.499Z,1.30
2022-07-27T03:12:41.194Z,1.50
2022-07-27T03:15:10.757Z,1.20
2022-07-27T03:17:37.479Z,1.20
2022-07-27T03:20:04.535Z,1.60
2022-07-27T03:22:34.402Z,1.33
2022-07-27T03:25:01.350Z,1.42
2022-07-27T03:27:29.214Z,1.48
2022-07-27T03:29:56.489Z,1.30
2022-07-27T03:32:23.463Z,1.77
2022-07-27T03:34:50.430Z,1.40
2022-07-27T03:37:18.962Z,1.40
2022-07-27T03:39:48.346Z,1.27
2022-07-27T03:42:15.174Z,1.50
2022-07-27T03:44:41.934Z,1.50
2022-07-27T03:47:08.670Z,1.40
2022-07-27T03:49:37.776Z,1.40
2022-07-27T03:52:04.752Z,1.35
2022-07-27T03:54:31.504Z,1.30
2022-07-27T03:56:58.263Z,1.23
2022-07-27T03:59:26.432Z,1.30
2022-07-27T04:01:54.397Z,1.50
2022-07-27T04:04:21.294Z,1.35
2022-07-27T04:06:48.108Z,1.10
2022-07-27T04:09:17.179Z,1.23
2022-07-27T04:11:50.725Z,1.38
2022-07-27T04:14:18.613Z,1.48
2022-07-27T04:16:45.528Z,1.30
2022-07-27T04:19:14.841Z,1.45
2022-07-27T04:21:44.327Z,1.20
2022-07-27T04:24:13.723Z,1.23
2022-07-27T04:26:40.520Z,1.30
2022-07-27T04:29:07.350Z,1.65
2022-07-27T04:31:34.084Z,1.27
2022-07-27T04:34:00.821Z,1.20
2022-07-27T04:36:27.613Z,1.30
2022-07-27T04:38:54.306Z,1.00
2022-07-27T04:41:23.959Z,1.17
2022-07-27T04:43:58.706Z,1.20
2022-07-27T04:46:26.197Z,1.27
2022-07-27T04:48:55.469Z,1.20
2022-07-27T04:51:27.376Z,1.35
2022-07-27T04:53:58.378Z,1.50
2022-07-27T04:56:27.082Z,1.20
2022-07-27T04:58:54.924Z,1.20
2022-07-27T05:01:23.156Z,1.40
2022-07-27T05:03:50.107Z,0.98
2022-07-27T05:06:17.358Z,1.00
2022-07-27T05:08:44.146Z,1.10
2022-07-27T05:11:15.564Z,1.10
2022-07-27T05:13:44.869Z,1.42
2022-07-27T05:16:14.060Z,0.98
2022-07-27T05:18:40.885Z,0.90
2022-07-27T05:21:09.626Z,1.13
2022-07-27T05:23:36.333Z,1.00
2022-07-27T05:26:03.040Z,1.08
2022-07-27T05:28:30.065Z,0.93
2022-07-27T05:30:57.057Z,1.20
2022-07-27T05:33:23.835Z,1.00
2022-07-27T05:35:50.835Z,1.00
2022-07-27T05:38:17.536Z,1.30
2022-07-27T05:40:45.643Z,1.20
2022-07-27T05:43:14.544Z,1.23
2022-07-27T05:45:43.857Z,1.20
2022-07-27T05:48:12.750Z,1.40
2022-07-27T05:50:39.508Z,0.93
2022-07-27T05:53:08.869Z,0.90
2022-07-27T05:55:35.679Z,1.48
2022-07-27T05:58:02.489Z,1.50
2022-07-27T06:00:29.310Z,1.10
2022-07-27T06:02:56.088Z,0.90
2022-07-27T06:05:25.411Z,1.40
2022-07-27T06:08:08.773Z,1.20
2022-07-27T06:10:38.124Z,1.10
2022-07-27T06:13:09.236Z,1.10
2022-07-27T06:15:36.901Z,1.63
2022-07-27T06:18:04.187Z,1.15
2022-07-27T06:20:31.738Z,2.40
2022-07-27T06:23:07.755Z,1.17
2022-07-27T06:25:35.989Z,0.80
2022-07-27T06:28:04.595Z,1.63
2022-07-27T06:30:36.275Z,1.00
2022-07-27T06:33:06.605Z,1.08
2022-07-27T06:35:33.984Z,1.30
2022-07-27T06:38:05.576Z,1.20
2022-07-27T06:40:32.655Z,0.88
2022-07-27T06:43:00.066Z,1.38
2022-07-27T06:45:27.369Z,0.95
2022-07-27T06:47:54.209Z,1.20
2022-07-27T06:50:23.959Z,1.10
2022-07-27T06:52:52.934Z,1.00
2022-07-27T06:55:19.739Z,1.10
2022-07-27T06:57:48.934Z,0.98
2022-07-27T07:00:16.188Z,1.25
2022-07-27T07:02:57.205Z,0.90
2022-07-27T07:05:26.639Z,1.40
2022-07-27T07:07:55.970Z,0.80
2022-07-27T07:10:25.250Z,2.10
2022-07-27T07:12:56.179Z,1.27
2022-07-27T07:15:27.090Z,1.13
2022-07-27T07:17:56.476Z,1.08
2022-07-27T07:20:25.406Z,1.00
2022-07-27T07:22:54.257Z,1.35
2022-07-27T07:25:24.071Z,0.98
2022-07-27T07:27:51.157Z,1.38
2022-07-27T07:30:18.056Z,1.00
2022-07-27T07:32:49.901Z,1.50
2022-07-27T07:35:16.816Z,1.40
2022-07-27T07:37:43.598Z,1.30
2022-07-27T07:40:39.951Z,1.08
2022-07-27T07:43:04.004Z,1.30
2022-07-27T07:45:33.750Z,1.17
2022-07-27T07:48:00.736Z,1.33
2022-07-27T07:50:28.145Z,1.23
2022-07-27T07:52:57.216Z,1.45
2022-07-27T07:55:26.423Z,1.38
2022-07-27T07:57:56.288Z,1.20
2022-07-27T08:00:23.985Z,1.52
2022-07-27T08:02:56.060Z,1.25
2022-07-27T08:05:26.498Z,1.15
2022-07-27T08:07:56.218Z,1.50
2022-07-27T08:10:23.489Z,1.05
2022-07-27T08:12:53.591Z,1.70
2022-07-27T08:15:20.873Z,1.10
2022-07-27T08:17:56.755Z,1.27
2022-07-27T08:20:25.514Z,1.10
2022-07-27T08:22:52.232Z,1.30
2022-07-27T08:25:21.310Z,1.48
2022-07-27T08:27:48.018Z,1.55
2022-07-27T08:30:14.899Z,1.20
2022-07-27T08:33:01.036Z,1.67
2022-07-27T08:35:29.360Z,1.27
2022-07-27T08:37:56.233Z,1.40
2022-07-27T08:43:12.955Z,1.40
2022-07-27T08:45:41.507Z,1.00
2022-07-27T08:48:13.489Z,1.52
2022-07-27T08:50:42.576Z,1.50
2022-07-27T08:53:14.488Z,1.23
2022-07-27T08:55:43.563Z,1.10
2022-07-27T08:58:11.605Z,1.42
2022-07-27T09:00:51.709Z,1.38
2022-07-27T09:03:21.513Z,1.50
2022-07-27T09:05:59.640Z,1.25
2022-07-27T09:08:30.374Z,1.20
2022-07-27T09:10:59.593Z,1.25
2022-07-27T09:13:31.969Z,1.55
2022-07-27T09:16:20.889Z,1.35
2022-07-27T09:18:51.276Z,1.42
2022-07-27T09:21:18.067Z,2.25
2022-07-27T09:23:51.288Z,1.73
2022-07-27T09:26:34.680Z,1.15
2022-07-27T09:29:12.137Z,1.27
2022-07-27T09:31:49.341Z,1.25
2022-07-27T09:34:31.836Z,1.10
2022-07-27T09:37:05.710Z,1.30
2022-07-27T09:39:32.656Z,1.73
2022-07-27T09:42:04.154Z,2.13
2022-07-27T09:44:45.090Z,1.90
2022-07-27T09:47:29.721Z,2.10
2022-07-27T09:50:15.488Z,1.27
2022-07-27T09:52:42.304Z,1.60
2022-07-27T09:55:09.357Z,1.55
2022-07-27T09:57:59.342Z,2.03
2022-07-27T10:00:27.195Z,1.67
2022-07-27T10:02:55.061Z,1.27
2022-07-27T10:05:22.803Z,1.50
2022-07-27T10:07:52.584Z,1.40
2022-07-27T10:10:20.454Z,2.13
2022-07-27T10:12:54.091Z,2.10
2022-07-27T10:15:23.307Z,1.85
2022-07-27T10:18:15.395Z,1.90
2022-07-27T10:20:47.543Z,1.45
2022-07-27T10:23:32.511Z,1.67
2022-07-27T10:26:29.765Z,1.63
2022-07-27T10:29:05.876Z,1.80
2022-07-27T10:31:39.545Z,1.50
2022-07-27T10:34:14.283Z,2.17
2022-07-27T10:36:53.068Z,1.90
2022-07-27T10:39:34.389Z,1.60
2022-07-27T10:42:30.653Z,1.67
2022-07-27T10:45:07.872Z,1.98
2022-07-27T10:47:42.325Z,1.88
2022-07-27T10:50:22.078Z,1.67
2022-07-27T10:52:50.480Z,1.65
2022-07-27T10:55:32.258Z,1.63
2022-07-27T10:58:25.219Z,1.60
2022-07-27T11:00:55.050Z,1.45
2022-07-27T11:03:43.557Z,1.70
2022-07-27T11:06:32.657Z,2.00
2022-07-27T11:09:53.308Z,1.60
2022-07-27T11:11:53.566Z,1.50
2022-07-27T11:14:31.273Z,2.45
2022-07-27T11:19:59.183Z,2.00
2022-07-27T11:23:14.049Z,2.13
2022-07-27T11:25:24.512Z,1.95
2022-07-27T11:27:52.317Z,1.77
2022-07-27T11:30:27.271Z,1.80
2022-07-27T11:32:55.009Z,1.65
2022-07-27T11:35:21.898Z,1.90
2022-07-27T11:38:05.487Z,1.63
2022-07-27T11:40:59.407Z,1.88
2022-07-27T11:43:39.677Z,1.80
2022-07-27T11:46:28.502Z,2.20
2022-07-27T11:49:07.477Z,1.60
2022-07-27T11:51:49.923Z,1.38
2022-07-27T11:54:23.511Z,1.80
2022-07-27T11:57:12.399Z,1.90
2022-07-27T11:59:43.671Z,1.80
2022-07-27T12:02:16.174Z,1.95
2022-07-27T12:04:46.713Z,1.65
2022-07-27T12:07:16.703Z,1.83
2022-07-27T12:09:59.042Z,1.60
2022-07-27T12:12:27.647Z,1.70
2022-07-27T12:14:59.044Z,1.70
2022-07-27T12:17:39.040Z,1.70
2022-07-27T12:20:21.032Z,1.80
2022-07-27T12:22:53.074Z,1.77
2022-07-27T12:25:22.063Z,1.60
2022-07-27T12:28:07.851Z,1.92
2022-07-27T12:30:44.804Z,1.77
2022-07-27T12:33:37.874Z,1.95
2022-07-27T12:36:09.354Z,1.45
2022-07-27T12:38:43.591Z,1.70
2022-07-27T12:41:22.636Z,1.80
2022-07-27T12:44:20.404Z,1.85
2022-07-27T12:46:53.237Z,2.03
2022-07-27T12:49:24.669Z,2.00
2022-07-27T12:51:52.014Z,1.90
2022-07-27T12:54:18.902Z,1.70
2022-07-27T12:56:47.143Z,1.98
2022-07-27T12:59:19.933Z,2.10
2022-07-27T13:01:46.701Z,1.50
2022-07-27T13:04:18.143Z,2.58
2022-07-27T13:06:47.372Z,1.83
2022-07-27T13:09:16.830Z,1.63
2022-07-27T13:11:48.156Z,2.05
2022-07-27T13:14:17.504Z,2.35
2022-07-27T13:16:44.351Z,1.80
2022-07-27T13:19:14.200Z,1.73
2022-07-27T13:21:41.537Z,1.98
2022-07-27T13:24:10.076Z,2.65
2022-07-27T13:26:37.785Z,2.13
2022-07-27T13:29:05.018Z,2.05
2022-07-27T13:31:31.927Z,2.00
2022-07-27T13:34:00.117Z,2.13
2022-07-27T13:36:30.261Z,2.20
2022-07-27T13:38:59.343Z,1.98
2022-07-27T13:41:26.032Z,1.80
2022-07-27T13:43:52.953Z,2.13
2022-07-27T13:46:21.892Z,2.10
2022-07-27T13:48:48.828Z,1.50
2022-07-27T13:51:15.722Z,1.73
2022-07-27T13:53:42.445Z,1.80
2022-07-27T13:56:09.206Z,1.85
2022-07-27T13:58:37.554Z,1.50
2022-07-27T14:01:07.690Z,1.88
2022-07-27T14:03:34.647Z,1.75
2022-07-27T14:06:01.445Z,1.83
2022-07-27T14:08:28.199Z,1.92
2022-07-27T14:10:55.028Z,1.92
2022-07-27T14:13:22.223Z,1.70
2022-07-27T14:15:52.967Z,1.95
2022-07-27T14:18:23.674Z,2.15
2022-07-27T14:20:50.615Z,1.52
2022-07-27T14:23:17.341Z,1.70
2022-07-27T14:25:44.188Z,1.63
2022-07-27T14:28:10.873Z,1.35
2022-07-27T14:30:42.166Z,1.77
2022-07-27T14:33:08.870Z,1.58
2022-07-27T14:35:40.343Z,1.75
2022-07-27T14:38:11.291Z,1.83
2022-07-27T14:40:39.321Z,1.60
2022-07-27T14:43:11.524Z,1.58
2022-07-27T14:45:45.272Z,1.75
2022-07-27T14:48:23.120Z,1.67
2022-07-27T14:50:54.463Z,1.50
2022-07-27T14:53:21.475Z,2.25
2022-07-27T14:55:50.400Z,1.58
2022-07-27T14:58:17.207Z,1.70
2022-07-27T15:00:44.071Z,1.67
2022-07-27T15:03:14.622Z,1.60
2022-07-27T15:05:49.449Z,1.35
2022-07-27T15:08:21.081Z,1.77
2022-07-27T15:10:48.886Z,1.45
2022-07-27T15:13:17.112Z,1.73
2022-07-27T15:15:44.257Z,1.65
2022-07-27T15:18:11.025Z,1.50
2022-07-27T15:20:37.819Z,1.92
2022-07-27T15:23:09.342Z,2.05
2022-07-27T15:25:36.085Z,1.58
2022-07-27T15:28:02.812Z,2.15
2022-07-27T15:30:31.114Z,1.60
2022-07-27T15:33:00.504Z,1.77
2022-07-27T15:35:29.711Z,1.77
2022-07-27T15:37:56.586Z,1.67
2022-07-27T15:40:38.954Z,2.53
2022-07-27T15:43:13.144Z,1.58
2022-07-27T15:45:41.395Z,1.60
2022-07-27T15:48:09.679Z,1.60
2022-07-27T15:50:41.453Z,1.52
2022-07-27T15:53:08.729Z,1.88
2022-07-27T15:55:37.394Z,1.70
2022-07-27T15:58:05.941Z,1.75
2022-07-27T16:00:38.633Z,2.08
2022-07-27T16:03:06.614Z,1.80
2022-07-27T16:05:33.513Z,2.03
2022-07-27T16:08:02.459Z,1.60
2022-07-27T16:10:29.912Z,1.95
2022-07-27T16:13:00.526Z,2.53
2022-07-27T16:15:45.891Z,1.83
2022-07-27T16:18:18.870Z,1.80
2022-07-27T16:20:47.823Z,2.55
2022-07-27T16:23:18.743Z,1.90
2022-07-27T16:26:07.621Z,1.77
2022-07-27T16:28:39.525Z,1.83
2022-07-27T16:31:11.218Z,1.83
2022-07-27T16:33:38.605Z,1.67
2022-07-27T16:36:05.813Z,2.13
2022-07-27T16:38:35.197Z,2.33
2022-07-27T16:41:05.601Z,1.70
2022-07-27T16:43:38.338Z,1.83
2022-07-27T16:46:07.608Z,1.88
2022-07-27T16:48:42.287Z,1.63
2022-07-27T16:51:15.277Z,1.58
2022-07-27T16:53:44.305Z,1.80
2022-07-27T16:56:14.583Z,1.55
2022-07-27T16:58:46.746Z,1.65
2022-07-27T17:01:26.414Z,2.35
2022-07-27T17:03:54.532Z,1.40
2022-07-27T17:06:21.592Z,1.67
2022-07-27T17:08:48.570Z,1.77
2022-07-27T17:11:21.730Z,1.73
2022-07-27T17:16:26.162Z,1.52
2022-07-27T17:18:53.051Z,1.83
2022-07-27T17:21:19.816Z,1.83
2022-07-27T17:23:46.529Z,1.63
2022-07-27T17:26:13.889Z,1.80
2022-07-27T17:28:40.960Z,1.77
2022-07-27T17:31:10.982Z,1.45
2022-07-27T17:33:39.087Z,1.50
2022-07-27T17:36:10.874Z,2.08
2022-07-27T17:38:42.193Z,1.50
2022-07-27T17:41:08.916Z,1.40
2022-07-27T17:43:38.632Z,1.48
2022-07-27T17:46:06.667Z,1.60
2022-07-27T17:48:35.284Z,2.00
2022-07-27T17:51:05.284Z,1.77
2022-07-27T17:53:32.136Z,2.00
2022-07-27T17:56:00.816Z,1.80
2022-07-27T17:58:30.148Z,1.85
2022-07-27T18:00:57.490Z,1.42
2022-07-27T18:03:24.214Z,1.40
2022-07-27T18:05:51.002Z,1.33
2022-07-27T18:08:19.963Z,1.42
2022-07-27T18:10:47.181Z,1.40
2022-07-27T18:13:16.354Z,1.33
2022-07-27T18:15:54.543Z,1.33
2022-07-27T18:18:23.948Z,1.92
2022-07-27T18:20:53.048Z,1.30
2022-07-27T18:23:23.391Z,1.63
2022-07-27T18:25:50.514Z,1.38
2022-07-27T18:28:21.140Z,1.20
2022-07-27T18:30:51.216Z,1.60
2022-07-27T18:33:18.198Z,1.55
2022-07-27T18:35:46.336Z,1.38
2022-07-27T18:38:16.742Z,1.27
2022-07-27T18:40:45.535Z,1.63
2022-07-27T18:43:12.913Z,1.65
2022-07-27T18:45:40.691Z,1.70
2022-07-27T18:48:09.774Z,1.27
2022-07-27T18:50:40.865Z,1.30
2022-07-27T18:53:08.723Z,1.42
2022-07-27T18:55:36.548Z,1.33
2022-07-27T18:58:03.541Z,1.52
2022-07-27T19:00:31.395Z,1.50
2022-07-27T19:03:03.504Z,1.40
2022-07-27T19:05:41.569Z,1.58
2022-07-27T19:08:14.076Z,1.75
2022-07-27T19:10:47.066Z,1.30
2022-07-27T19:13:14.334Z,1.52
2022-07-27T19:15:41.441Z,1.52
2022-07-27T19:18:08.777Z,1.30
2022-07-27T19:20:38.357Z,1.45
2022-07-27T19:23:08.084Z,1.65
2022-07-27T19:25:35.070Z,1.38
2022-07-27T19:28:03.702Z,1.20
2022-07-27T19:30:33.194Z,1.50
2022-07-27T19:33:00.010Z,1.48
2022-07-27T19:35:29.482Z,1.20
2022-07-27T19:37:56.287Z,1.15
2022-07-27T19:43:10.689Z,1.50
2022-07-27T19:45:40.423Z,1.55
2022-07-27T19:48:08.323Z,1.40
2022-07-27T19:50:37.401Z,1.15
2022-07-27T19:53:04.370Z,1.30
2022-07-27T19:55:33.505Z,1.30
2022-07-27T19:58:01.073Z,1.30
2022-07-27T20:00:27.859Z,1.30
2022-07-27T20:02:54.806Z,1.20
2022-07-27T20:05:26.389Z,1.30
2022-07-27T20:07:53.354Z,1.48
2022-07-27T20:10:22.465Z,1.20
2022-07-27T20:12:49.279Z,1.30
2022-07-27T20:15:18.274Z,1.08
2022-07-27T20:17:44.983Z,1.35
2022-07-27T20:20:14.703Z,1.15
2022-07-27T20:22:41.933Z,1.30
2022-07-27T20:25:10.737Z,1.30
2022-07-27T20:27:38.572Z,1.13
2022-07-27T20:30:05.794Z,1.30
2022-07-27T20:32:32.827Z,0.93
2022-07-27T20:34:59.889Z,1.20
2022-07-27T20:37:26.878Z,1.10
2022-07-27T20:39:54.077Z,1.20
2022-07-27T20:42:20.975Z,1.50
2022-07-27T20:44:47.788Z,1.17
2022-07-27T20:47:16.820Z,1.00
2022-07-27T20:49:45.685Z,1.33
2022-07-27T20:52:15.204Z,1.38
2022-07-27T20:54:42.480Z,1.23
2022-07-27T20:57:13.963Z,1.38
2022-07-27T20:59:40.717Z,1.20
2022-07-27T21:02:08.123Z,1.20
2022-07-27T21:04:37.194Z,0.90
2022-07-27T21:07:04.191Z,1.25
2022-07-27T21:09:31.620Z,1.35
2022-07-27T21:11:58.448Z,1.13
2022-07-27T21:14:25.196Z,1.20
2022-07-27T21:16:51.982Z,1.35
2022-07-27T21:19:22.397Z,1.25
2022-07-27T21:21:51.641Z,1.20
2022-07-27T21:24:20.985Z,1.40
2022-07-27T21:26:49.451Z,1.23
2022-07-27T21:29:16.776Z,1.20
2022-07-27T21:31:50.086Z,1.38
2022-07-27T21:34:19.770Z,1.17
2022-07-27T21:36:49.791Z,1.15
2022-07-27T21:39:17.957Z,1.00
2022-07-27T21:41:45.217Z,1.00
2022-07-27T21:44:12.305Z,1.35
2022-07-27T21:46:39.215Z,1.38
2022-07-27T21:49:06.117Z,1.58
2022-07-27T21:51:35.082Z,1.33
2022-07-27T21:54:01.947Z,1.10
2022-07-27T21:56:28.852Z,1.65
2022-07-27T21:58:55.790Z,1.63
2022-07-27T22:01:22.705Z,1.58
2022-07-27T22:03:49.864Z,1.30
2022-07-27T22:06:19.428Z,1.23
2022-07-27T22:08:46.347Z,1.10
2022-07-27T22:11:13.526Z,1.38
2022-07-27T22:13:40.522Z,1.20
2022-07-27T22:16:12.578Z,1.15
2022-07-27T22:18:39.605Z,1.17
2022-07-27T22:21:08.932Z,1.10
2022-07-27T22:23:35.745Z,1.63
2022-07-27T22:26:02.601Z,1.27
2022-07-27T22:28:29.508Z,0.90
2022-07-27T22:30:59.846Z,1.10
2022-07-27T22:33:44.466Z,0.80
2022-07-27T22:36:11.965Z,1.00
2022-07-27T22:38:39.150Z,1.10
2022-07-27T22:41:05.914Z,1.00
2022-07-27T22:43:32.780Z,0.90
2022-07-27T22:46:00.215Z,0.90
2022-07-27T22:48:27.261Z,1.02
2022-07-27T22:50:54.041Z,0.95
2022-07-27T22:53:20.901Z,0.90
2022-07-27T22:55:47.715Z,1.00
2022-07-27T22:58:18.225Z,1.10
2022-07-27T23:00:45.087Z,1.00
2022-07-27T23:03:11.858Z,0.70
2022-07-27T23:05:38.731Z,0.80
2022-07-27T23:08:05.845Z,0.77
2022-07-27T23:10:47.499Z,0.80
2022-07-27T23:13:23.316Z,1.10
2022-07-27T23:15:50.498Z,0.82
2022-07-27T23:18:20.726Z,0.90
2022-07-27T23:20:47.556Z,1.10
2022-07-27T23:23:21.495Z,0.80
2022-07-27T23:25:49.910Z,1.20
2022-07-27T23:28:17.418Z,1.27
2022-07-27T23:30:44.480Z,1.00
2022-07-27T23:33:11.300Z,1.00
2022-07-27T23:35:38.094Z,0.90
2022-07-27T23:38:04.924Z,0.93
2022-07-27T23:40:31.614Z,0.90
2022-07-27T23:42:58.505Z,0.70
2022-07-27T23:45:26.492Z,1.02
2022-07-27T23:47:53.210Z,0.93
2022-07-27T23:50:22.285Z,0.90
2022-07-27T23:52:49.036Z,1.00
2022-07-27T23:55:18.177Z,1.00
2022-07-27T23:57:47.202Z,1.05
